createdAt,value
2023-01-06T00:02:39.227Z,8.23
2023-01-06T00:05:24.733Z,8.20
2023-01-06T00:08:10.031Z,7.80
2023-01-06T00:10:58.541Z,10.52
2023-01-06T00:13:44.043Z,7.88
2023-01-06T00:16:30.744Z,12.27
2023-01-06T00:19:18.769Z,11.93
2023-01-06T00:22:19.399Z,9.45
2023-01-06T00:25:05.061Z,12.85
2023-01-06T00:27:50.396Z,14.95
2023-01-06T00:30:37.310Z,13.55
2023-01-06T00:33:26.092Z,7.50
2023-01-06T00:36:13.552Z,12.30
2023-01-06T00:38:58.892Z,10.13
2023-01-06T00:42:02.835Z,7.22
2023-01-06T00:44:48.161Z,13.93
2023-01-06T00:47:33.606Z,7.25
2023-01-06T00:50:19.181Z,10.52
2023-01-06T00:53:04.791Z,11.15
2023-01-06T00:55:50.022Z,8.05
2023-01-06T00:58:35.785Z,9.25
2023-01-06T01:01:21.464Z,7.95
2023-01-06T01:04:07.734Z,9.15
2023-01-06T01:06:54.004Z,12.52
2023-01-06T01:09:39.850Z,14.43
2023-01-06T01:12:25.493Z,12.65
2023-01-06T01:15:13.714Z,8.88
2023-01-06T01:17:59.206Z,12.35
2023-01-06T01:20:51.873Z,6.05
2023-01-06T01:23:36.941Z,9.68
2023-01-06T01:26:22.631Z,7.82
2023-01-06T01:29:10.241Z,8.38
2023-01-06T01:31:56.054Z,12.13
2023-01-06T01:34:41.531Z,5.05
2023-01-06T01:37:27.040Z,10.32
2023-01-06T01:40:12.833Z,8.82
2023-01-06T01:42:58.578Z,8.10
2023-01-06T01:45:50.371Z,7.78
2023-01-06T01:48:36.221Z,10.98
2023-01-06T01:51:28.708Z,8.00
2023-01-06T01:54:19.302Z,5.15
2023-01-06T01:57:09.969Z,6.47
2023-01-06T01:59:55.815Z,9.25
2023-01-06T02:02:42.538Z,8.32
2023-01-06T02:05:29.107Z,6.00
2023-01-06T02:08:26.429Z,5.68
2023-01-06T02:11:12.349Z,9.63
2023-01-06T02:14:11.679Z,9.00
2023-01-06T02:17:12.048Z,8.25
2023-01-06T02:20:14.645Z,13.02
2023-01-06T02:23:22.154Z,8.05
2023-01-06T02:26:26.694Z,8.15
2023-01-06T02:29:27.415Z,6.50
2023-01-06T02:32:30.280Z,5.88
2023-01-06T02:35:49.487Z,4.72
2023-01-06T02:38:58.998Z,6.65
2023-01-06T02:41:57.985Z,6.68
2023-01-06T02:45:01.841Z,12.38
2023-01-06T02:48:05.488Z,7.95
2023-01-06T02:51:25.049Z,9.52
2023-01-06T02:54:41.973Z,9.05
2023-01-06T02:57:40.556Z,5.80
2023-01-06T03:00:30.728Z,7.53
2023-01-06T03:03:21.039Z,6.65
2023-01-06T03:06:15.357Z,11.15
2023-01-06T03:09:05.314Z,6.50
2023-01-06T03:11:56.408Z,9.52
2023-01-06T03:14:48.550Z,11.43
2023-01-06T03:17:34.888Z,9.07
2023-01-06T03:20:24.549Z,7.53
2023-01-06T03:23:15.733Z,8.77
2023-01-06T03:26:01.323Z,8.68
2023-01-06T03:28:50.060Z,7.43
2023-01-06T03:32:06.081Z,7.10
2023-01-06T03:35:00.387Z,3.63
2023-01-06T03:38:20.970Z,8.83
2023-01-06T03:41:46.994Z,5.45
2023-01-06T03:44:42.133Z,6.78
2023-01-06T03:47:42.010Z,9.77
2023-01-06T03:50:35.397Z,4.68
2023-01-06T03:53:30.189Z,5.00
2023-01-06T03:56:45.651Z,8.27
2023-01-06T03:59:38.379Z,6.15
2023-01-06T04:02:24.972Z,6.05
2023-01-06T04:05:21.153Z,6.45
2023-01-06T04:08:07.689Z,4.75
2023-01-06T04:10:53.514Z,4.00
2023-01-06T04:13:41.412Z,6.82
2023-01-06T04:16:27.359Z,5.38
2023-01-06T04:19:12.742Z,6.72
2023-01-06T04:21:58.133Z,6.43
2023-01-06T04:24:46.740Z,5.63
2023-01-06T04:27:32.657Z,3.50
2023-01-06T04:30:18.643Z,5.65
2023-01-06T04:33:04.166Z,4.30
2023-01-06T04:35:49.369Z,4.28
2023-01-06T04:38:37.846Z,5.18
2023-01-06T04:41:23.251Z,13.85
2023-01-06T04:44:08.879Z,3.20
2023-01-06T04:46:56.969Z,3.80
2023-01-06T04:49:42.128Z,5.47
2023-01-06T04:52:33.316Z,3.50
2023-01-06T04:55:18.979Z,4.78
2023-01-06T04:58:04.689Z,3.65
2023-01-06T05:00:50.272Z,4.22
2023-01-06T05:03:41.153Z,4.85
2023-01-06T05:06:29.292Z,5.10
2023-01-06T05:09:15.002Z,8.50
2023-01-06T05:12:00.694Z,3.90
2023-01-06T05:14:48.110Z,6.25
2023-01-06T05:17:33.695Z,3.22
2023-01-06T05:20:20.420Z,4.35
2023-01-06T05:23:06.017Z,8.18
2023-01-06T05:25:52.762Z,6.93
2023-01-06T05:28:40.733Z,9.48
2023-01-06T05:31:26.390Z,4.60
2023-01-06T05:34:12.121Z,5.80
2023-01-06T05:36:58.154Z,6.88
2023-01-06T05:39:44.827Z,7.10
2023-01-06T05:42:30.235Z,6.65
2023-01-06T05:45:15.856Z,5.03
2023-01-06T05:48:02.674Z,2.88
2023-01-06T05:50:51.035Z,4.53
2023-01-06T05:53:39.075Z,9.07
2023-01-06T05:56:24.654Z,6.43
2023-01-06T05:59:10.256Z,4.65
2023-01-06T06:01:58.644Z,6.32
2023-01-06T06:04:46.343Z,5.32
2023-01-06T06:07:31.701Z,4.18
2023-01-06T06:10:19.785Z,9.18
2023-01-06T06:13:05.052Z,7.20
2023-01-06T06:15:51.754Z,8.05
2023-01-06T06:18:44.785Z,13.48
2023-01-06T06:21:31.242Z,5.95
2023-01-06T06:24:16.402Z,6.05
2023-01-06T06:27:01.913Z,7.28
2023-01-06T06:29:47.466Z,8.80
2023-01-06T06:32:33.175Z,9.68
2023-01-06T06:35:18.797Z,7.72
2023-01-06T06:38:04.304Z,15.27
2023-01-06T06:40:49.810Z,8.05
2023-01-06T06:43:35.191Z,10.93
2023-01-06T06:46:24.007Z,10.05
2023-01-06T06:49:09.669Z,13.50
2023-01-06T06:51:55.636Z,10.65
2023-01-06T06:54:40.788Z,13.00
2023-01-06T06:57:29.108Z,12.85
2023-01-06T07:00:14.887Z,12.38
2023-01-06T07:03:00.229Z,10.77
2023-01-06T07:05:47.625Z,8.40
2023-01-06T07:08:35.586Z,8.98
2023-01-06T07:11:21.589Z,7.05
2023-01-06T07:14:06.879Z,11.07
2023-01-06T07:16:52.388Z,17.23
2023-01-06T07:19:37.929Z,13.10
2023-01-06T07:22:23.290Z,22.08
2023-01-06T07:25:09.987Z,21.27
2023-01-06T07:28:00.511Z,24.27
2023-01-06T07:30:45.747Z,16.30
2023-01-06T07:33:36.681Z,14.60
2023-01-06T07:36:22.146Z,14.40
2023-01-06T07:39:07.839Z,14.48
2023-01-06T07:41:55.936Z,18.85
2023-01-06T07:44:41.453Z,17.48
2023-01-06T07:47:26.822Z,21.02
2023-01-06T07:50:12.366Z,23.52
2023-01-06T07:52:59.285Z,29.58
2023-01-06T07:55:53.763Z,22.90
2023-01-06T07:58:40.207Z,29.53
2023-01-06T08:01:27.214Z,25.88
2023-01-06T08:04:12.541Z,29.33
2023-01-06T08:06:59.158Z,36.08
2023-01-06T08:09:47.853Z,27.33
2023-01-06T08:12:33.207Z,35.45
2023-01-06T08:15:18.689Z,40.30
2023-01-06T08:18:04.100Z,24.98
2023-01-06T08:20:54.841Z,29.63
2023-01-06T08:23:40.524Z,36.60
2023-01-06T08:26:26.063Z,25.92
2023-01-06T08:29:11.425Z,27.08
2023-01-06T08:32:10.004Z,27.60
2023-01-06T08:34:56.244Z,22.35
2023-01-06T08:37:41.879Z,27.70
2023-01-06T08:40:31.256Z,36.65
2023-01-06T08:43:16.671Z,25.27
2023-01-06T08:46:04.508Z,23.88
2023-01-06T08:48:49.734Z,29.70
2023-01-06T08:51:35.738Z,37.83
2023-01-06T08:54:24.395Z,25.23
2023-01-06T08:57:13.161Z,24.27
2023-01-06T08:59:58.584Z,28.33
2023-01-06T09:02:43.778Z,23.13
2023-01-06T09:05:29.912Z,29.10
2023-01-06T09:08:15.145Z,25.40
2023-01-06T09:11:06.420Z,17.50
2023-01-06T09:14:01.064Z,18.20
2023-01-06T09:16:48.737Z,21.02
2023-01-06T09:19:34.442Z,27.02
2023-01-06T09:22:20.810Z,21.60
2023-01-06T09:25:07.387Z,17.30
2023-01-06T09:27:58.487Z,20.13
2023-01-06T09:30:46.530Z,18.40
2023-01-06T09:33:31.716Z,13.73
2023-01-06T09:36:17.326Z,19.20
2023-01-06T09:39:02.888Z,20.23
2023-01-06T09:42:05.736Z,19.25
2023-01-06T09:45:21.041Z,16.42
2023-01-06T09:48:11.625Z,18.63
2023-01-06T09:51:02.443Z,12.55
2023-01-06T09:53:54.197Z,14.18
2023-01-06T09:56:43.787Z,9.43
2023-01-06T09:59:38.913Z,13.55
2023-01-06T10:05:17.369Z,10.32
2023-01-06T10:08:30.720Z,11.65
2023-01-06T10:11:45.548Z,6.68
2023-01-06T10:14:40.687Z,12.18
2023-01-06T10:17:41.236Z,12.30
2023-01-06T10:21:02.410Z,12.57
2023-01-06T10:24:32.570Z,8.10
2023-01-06T10:27:34.600Z,12.57
2023-01-06T10:30:34.014Z,7.65
2023-01-06T10:33:32.533Z,5.85
2023-01-06T10:36:29.137Z,16.15
2023-01-06T10:39:21.306Z,12.57
2023-01-06T10:42:25.333Z,14.05
2023-01-06T10:45:14.081Z,6.63
2023-01-06T10:48:01.737Z,15.82
2023-01-06T10:50:51.409Z,11.80
2023-01-06T10:53:37.814Z,13.25
2023-01-06T10:56:24.411Z,14.13
2023-01-06T10:59:16.621Z,5.55
2023-01-06T11:02:02.547Z,13.88
2023-01-06T11:04:52.422Z,8.07
2023-01-06T11:07:40.383Z,7.55
2023-01-06T11:10:35.761Z,9.15
2023-01-06T11:13:36.602Z,19.27
2023-01-06T11:16:30.914Z,8.02
2023-01-06T11:19:45.863Z,11.57
2023-01-06T11:22:39.533Z,24.20
2023-01-06T11:25:32.370Z,10.05
2023-01-06T11:28:20.160Z,16.15
2023-01-06T11:31:20.492Z,11.80
2023-01-06T11:34:06.356Z,13.38
2023-01-06T11:36:53.015Z,11.30
2023-01-06T11:39:41.468Z,6.07
2023-01-06T11:42:27.955Z,12.32
2023-01-06T11:45:38.732Z,9.27
2023-01-06T11:48:34.516Z,9.25
2023-01-06T11:51:32.695Z,8.52
2023-01-06T11:54:37.028Z,9.18
2023-01-06T11:57:50.292Z,9.30
2023-01-06T12:01:12.101Z,11.05
2023-01-06T12:04:31.265Z,12.57
2023-01-06T12:07:32.095Z,11.27
2023-01-06T12:10:22.736Z,14.18
2023-01-06T12:13:12.433Z,8.77
2023-01-06T12:16:07.271Z,7.32
2023-01-06T12:18:53.785Z,7.90
2023-01-06T12:21:43.097Z,7.82
2023-01-06T12:24:32.276Z,5.93
2023-01-06T12:27:30.418Z,6.07
2023-01-06T12:30:30.736Z,7.18
2023-01-06T12:33:34.797Z,12.05
2023-01-06T12:36:40.616Z,9.27
2023-01-06T12:39:42.943Z,7.05
2023-01-06T12:42:53.291Z,9.57
2023-01-06T12:45:49.838Z,9.20
2023-01-06T12:48:44.689Z,8.02
2023-01-06T12:51:45.772Z,10.07
2023-01-06T12:54:33.486Z,3.95
2023-01-06T12:57:42.694Z,6.45
2023-01-06T13:00:50.770Z,9.32
2023-01-06T13:04:18.961Z,5.32
2023-01-06T13:07:32.215Z,8.13
2023-01-06T13:10:53.439Z,6.32
2023-01-06T13:14:12.208Z,11.68
2023-01-06T13:17:22.467Z,11.15
2023-01-06T13:20:28.201Z,7.57
2023-01-06T13:23:19.680Z,7.60
2023-01-06T13:26:20.141Z,8.05
2023-01-06T13:29:24.179Z,5.68
2023-01-06T13:32:21.764Z,5.63
2023-01-06T13:35:41.519Z,7.93
2023-01-06T13:38:48.084Z,8.32
2023-01-06T13:41:36.993Z,8.77
2023-01-06T13:44:25.695Z,6.15
2023-01-06T13:47:18.492Z,6.38
2023-01-06T13:50:08.020Z,9.27
2023-01-06T13:52:54.525Z,8.13
2023-01-06T13:55:40.528Z,4.57
2023-01-06T13:58:32.799Z,13.25
2023-01-06T14:01:21.096Z,8.45
2023-01-06T14:04:42.683Z,5.25
2023-01-06T14:07:40.457Z,12.85
2023-01-06T14:10:43.057Z,5.22
2023-01-06T14:13:36.767Z,6.40
2023-01-06T14:16:40.499Z,2.90
2023-01-06T14:19:32.807Z,3.63
2023-01-06T14:22:25.443Z,5.88
2023-01-06T14:25:22.447Z,4.90
2023-01-06T14:28:23.249Z,5.50
2023-01-06T14:31:26.779Z,7.38
2023-01-06T14:34:15.390Z,4.80
2023-01-06T14:37:02.339Z,3.72
2023-01-06T14:39:54.161Z,6.88
2023-01-06T14:42:43.876Z,8.13
2023-01-06T14:45:39.650Z,5.40
2023-01-06T14:48:33.197Z,6.82
2023-01-06T14:51:21.056Z,7.95
2023-01-06T14:54:36.677Z,6.47
2023-01-06T14:57:36.583Z,6.97
2023-01-06T15:00:29.784Z,11.30
2023-01-06T15:03:24.568Z,5.65
2023-01-06T15:06:17.436Z,4.88
2023-01-06T15:09:19.383Z,7.20
2023-01-06T15:12:28.144Z,10.32
2023-01-06T15:15:28.713Z,4.82
2023-01-06T15:18:15.828Z,19.55
2023-01-06T15:21:02.857Z,9.43
2023-01-06T15:23:51.641Z,12.25
2023-01-06T15:26:38.211Z,11.25
2023-01-06T15:29:25.539Z,7.93
2023-01-06T15:32:13.261Z,9.95
2023-01-06T15:35:01.028Z,9.95
2023-01-06T15:37:48.028Z,13.07
2023-01-06T15:40:39.286Z,13.95
2023-01-06T15:43:27.530Z,12.15
2023-01-06T15:46:13.279Z,14.10
2023-01-06T15:48:59.017Z,14.38
2023-01-06T15:52:11.568Z,22.85
2023-01-06T15:54:59.920Z,14.45
2023-01-06T15:57:53.461Z,18.15
2023-01-06T16:00:48.131Z,14.65
2023-01-06T16:03:35.766Z,17.33
2023-01-06T16:06:48.077Z,17.05
2023-01-06T16:09:37.952Z,23.48
2023-01-06T16:12:23.169Z,11.15
2023-01-06T16:15:34.026Z,18.92
2023-01-06T16:18:28.637Z,15.15
2023-01-06T16:21:19.700Z,14.63
2023-01-06T16:24:06.352Z,18.33
2023-01-06T16:27:06.343Z,19.15
2023-01-06T16:30:20.912Z,22.55
2023-01-06T16:33:39.564Z,11.70
2023-01-06T16:36:25.313Z,19.73
2023-01-06T16:39:12.920Z,13.80
2023-01-06T16:42:01.338Z,15.02
2023-01-06T16:45:09.488Z,18.40
2023-01-06T16:47:58.955Z,16.40
2023-01-06T16:50:53.142Z,20.77
2023-01-06T16:53:39.917Z,19.98
2023-01-06T16:56:28.863Z,21.17
2023-01-06T16:59:18.797Z,14.98
2023-01-06T17:02:33.940Z,15.70
2023-01-06T17:05:25.660Z,10.35
2023-01-06T17:08:16.203Z,18.60
2023-01-06T17:11:06.936Z,13.50
2023-01-06T17:14:04.704Z,12.10
2023-01-06T17:16:50.748Z,17.67
2023-01-06T17:19:36.834Z,23.52
2023-01-06T17:22:27.958Z,10.02
2023-01-06T17:25:14.093Z,16.65
2023-01-06T17:28:00.098Z,19.52
2023-01-06T17:30:46.508Z,18.85
2023-01-06T17:33:31.774Z,18.88
2023-01-06T17:36:35.341Z,10.70
2023-01-06T17:39:28.169Z,17.75
2023-01-06T17:42:13.696Z,14.18
2023-01-06T17:45:00.454Z,17.85
2023-01-06T17:47:50.077Z,11.82
2023-01-06T17:50:36.082Z,15.23
2023-01-06T17:53:55.732Z,19.42
2023-01-06T17:56:41.053Z,22.33
2023-01-06T17:59:29.704Z,16.95
2023-01-06T18:03:03.643Z,22.38
2023-01-06T18:06:00.840Z,22.00
2023-01-06T18:08:48.500Z,17.25
2023-01-06T18:11:56.110Z,20.08
2023-01-06T18:14:45.577Z,20.33
2023-01-06T18:17:34.132Z,27.65
2023-01-06T18:20:22.725Z,29.90
2023-01-06T18:23:18.425Z,28.35
2023-01-06T18:26:27.316Z,24.08
2023-01-06T18:29:19.312Z,28.13
2023-01-06T18:32:31.614Z,31.00
2023-01-06T18:35:19.363Z,27.48
2023-01-06T18:38:08.001Z,29.85
2023-01-06T18:40:54.668Z,22.88
2023-01-06T18:43:41.772Z,28.42
2023-01-06T18:46:27.450Z,28.38
2023-01-06T18:49:15.936Z,28.55
2023-01-06T18:52:24.771Z,31.83
2023-01-06T18:55:18.156Z,30.27
2023-01-06T18:58:12.375Z,33.75
2023-01-06T19:01:01.387Z,31.08
2023-01-06T19:03:59.858Z,41.60
2023-01-06T19:06:57.975Z,36.53
2023-01-06T19:09:45.685Z,40.17
2023-01-06T19:12:39.248Z,48.50
2023-01-06T19:15:26.787Z,39.65
2023-01-06T19:18:16.005Z,35.15
2023-01-06T19:21:22.601Z,33.75
2023-01-06T19:24:28.638Z,31.05
2023-01-06T19:27:42.179Z,26.40
2023-01-06T19:30:43.529Z,25.45
2023-01-06T19:34:02.572Z,23.75
2023-01-06T19:36:53.197Z,19.17
2023-01-06T19:39:47.816Z,17.52
2023-01-06T19:42:33.355Z,18.52
2023-01-06T19:45:30.408Z,18.42
2023-01-06T19:48:28.132Z,18.98
2023-01-06T19:51:34.032Z,18.45
2023-01-06T19:54:25.045Z,18.10
2023-01-06T19:57:28.260Z,17.65
2023-01-06T20:00:26.728Z,18.42
2023-01-06T20:03:30.585Z,18.38
2023-01-06T20:06:17.892Z,18.98
2023-01-06T20:09:03.717Z,19.70
2023-01-06T20:11:50.797Z,19.67
2023-01-06T20:14:36.385Z,18.08
2023-01-06T20:17:21.756Z,19.33
2023-01-06T20:20:08.539Z,19.35
2023-01-06T20:22:53.808Z,18.52
2023-01-06T20:25:39.245Z,18.15
2023-01-06T20:28:24.892Z,18.25
2023-01-06T20:31:10.528Z,21.55
2023-01-06T20:33:55.840Z,20.13
2023-01-06T20:36:41.362Z,21.20
2023-01-06T20:39:29.681Z,20.58
2023-01-06T20:42:15.869Z,22.35
2023-01-06T20:45:01.612Z,24.55
2023-01-06T20:47:50.491Z,22.38
2023-01-06T20:50:36.236Z,21.48
2023-01-06T20:53:21.760Z,21.35
2023-01-06T20:56:08.361Z,20.30
2023-01-06T20:59:19.474Z,19.35
2023-01-06T21:02:06.246Z,18.77
2023-01-06T21:04:51.663Z,17.65
2023-01-06T21:07:37.366Z,18.45
2023-01-06T21:10:22.857Z,20.88
2023-01-06T21:13:08.566Z,18.05
2023-01-06T21:15:56.517Z,20.38
2023-01-06T21:18:45.027Z,21.23
2023-01-06T21:21:33.388Z,21.85
2023-01-06T21:24:18.904Z,24.90
2023-01-06T21:27:07.385Z,23.70
2023-01-06T21:29:53.103Z,18.75
2023-01-06T21:32:39.831Z,22.90
2023-01-06T21:35:29.494Z,22.02
2023-01-06T21:38:15.026Z,21.25
2023-01-06T21:41:23.471Z,18.63
2023-01-06T21:44:09.493Z,15.13
2023-01-06T21:46:56.222Z,15.85
2023-01-06T21:49:45.505Z,14.45
2023-01-06T21:52:33.591Z,20.98
2023-01-06T21:55:19.143Z,16.88
2023-01-06T21:58:04.464Z,16.75
2023-01-06T22:00:49.885Z,18.85
2023-01-06T22:03:35.404Z,17.63
2023-01-06T22:06:21.857Z,21.20
2023-01-06T22:09:08.966Z,18.08
2023-01-06T22:12:00.330Z,19.95
2023-01-06T22:14:48.560Z,19.73
2023-01-06T22:17:34.765Z,15.30
2023-01-06T22:20:20.436Z,17.77
2023-01-06T22:23:10.171Z,14.57
2023-01-06T22:25:55.387Z,14.57
2023-01-06T22:28:46.205Z,13.13
2023-01-06T22:31:31.637Z,12.95
2023-01-06T22:34:17.468Z,12.68
2023-01-06T22:37:03.122Z,12.65
2023-01-06T22:39:49.350Z,13.73
2023-01-06T22:42:34.966Z,16.75
2023-01-06T22:45:23.100Z,12.18
2023-01-06T22:48:08.240Z,13.25
2023-01-06T22:51:02.164Z,13.95
2023-01-06T22:53:47.586Z,13.98
2023-01-06T22:56:33.491Z,14.68
2023-01-06T22:59:18.824Z,19.83
2023-01-06T23:02:04.387Z,15.25
2023-01-06T23:04:51.896Z,15.57
2023-01-06T23:07:39.150Z,19.90
2023-01-06T23:10:24.657Z,14.20
2023-01-06T23:13:13.391Z,17.23
2023-01-06T23:16:26.376Z,19.92
2023-01-06T23:19:16.768Z,17.38
2023-01-06T23:22:02.231Z,17.05
2023-01-06T23:24:47.743Z,17.38
2023-01-06T23:27:33.408Z,14.73
2023-01-06T23:30:18.634Z,15.80
2023-01-06T23:33:04.103Z,14.07
2023-01-06T23:35:49.509Z,14.32
2023-01-06T23:38:35.650Z,16.50
2023-01-06T23:41:24.553Z,15.57
2023-01-06T23:44:18.357Z,16.25
2023-01-06T23:47:03.986Z,14.68
2023-01-06T23:49:49.403Z,17.42
2023-01-06T23:52:34.909Z,15.23
2023-01-06T23:55:20.606Z,13.10
2023-01-06T23:58:05.977Z,12.05
